Time;durP1;ratioP1;P1;durP2;ratioP2;P2;SDS_P1;SDS_P2;PMS_P1;PMS_P2;Temp;Humidity;BMP_temperature;BMP_pressure;BME280_temperature;BME280_humidity;BME280_pressure;Samples;Min_cycle;Max_cycle;Signal;HPM_P1;HPM_P2
2022/03/15 10:11:19;;;;;;;14.83;13.30;;;10.20;99.90;;;;;;5110191;27;21051;-73
2022/03/15 10:13:46;;;;;;;13.93;12.60;;;11.10;99.90;;;;;;5110169;28;20845;-73
2022/03/15 10:16:14;;;;;;;14.90;12.40;;;11.10;99.90;;;;;;5110133;28;20969;-74
2022/03/15 10:18:51;;;;;;;13.77;12.87;;;11.20;99.90;;;;;;5109584;28;20444;-73
2022/03/15 10:21:19;;;;;;;13.60;12.67;;;11.10;99.90;;;;;;5109927;28;20449;-73
2022/03/15 10:23:46;;;;;;;14.20;13.30;;;11.30;99.90;;;;;;5109998;28;20442;-73
2022/03/15 10:26:24;;;;;;;14.63;13.70;;;11.20;99.90;;;;;;5110028;28;20440;-73
2022/03/15 10:28:53;;;;;;;13.83;12.73;;;11.30;99.90;;;;;;5109997;28;20485;-73
2022/03/15 10:31:23;;;;;;;13.17;12.23;;;11.40;99.90;;;;;;5109862;28;20546;-73
2022/03/15 10:33:51;;;;;;;24.43;15.87;;;11.60;99.90;;;;;;5109905;28;20523;-74
2022/03/15 10:36:18;;;;;;;14.07;13.17;;;11.90;99.90;;;;;;5109859;28;20811;-74
2022/03/15 10:38:46;;;;;;;13.83;12.83;;;12.10;99.90;;;;;;5109733;28;20446;-73
2022/03/15 10:41:15;;;;;;;16.83;12.60;;;12.30;99.90;;;;;;5109721;28;20502;-73
2022/03/15 10:43:43;;;;;;;13.90;13.00;;;12.30;99.90;;;;;;5109534;28;20798;-74
2022/03/15 10:46:12;;;;;;;14.60;13.50;;;12.20;99.90;;;;;;5109559;28;20455;-73
2022/03/15 10:48:40;;;;;;;14.37;13.10;;;12.10;99.90;;;;;;5109365;28;20461;-73
2022/03/15 10:51:09;;;;;;;14.33;13.23;;;12.10;99.90;;;;;;5109343;28;20544;-73
2022/03/15 10:53:41;;;;;;;14.27;13.37;;;12.00;99.90;;;;;;5109437;28;20488;-73
2022/03/15 10:56:12;;;;;;;17.57;16.07;;;11.70;99.90;;;;;;5109604;28;20458;-74
2022/03/15 10:58:47;;;;;;;18.90;17.50;;;11.60;99.90;;;;;;5109692;28;20446;-74
2022/03/15 11:01:14;;;;;;;19.80;18.30;;;11.40;99.90;;;;;;5109506;28;20497;-74
2022/03/15 11:03:51;;;;;;;21.73;20.03;;;11.20;99.90;;;;;;5109444;28;20451;-74
2022/03/15 11:06:31;;;;;;;21.70;20.40;;;11.20;99.90;;;;;;5109321;28;20471;-75
2022/03/15 11:08:58;;;;;;;23.53;22.13;;;11.30;99.90;;;;;;5109058;28;20485;-76
2022/03/15 11:11:27;;;;;;;30.17;27.97;;;11.20;99.90;;;;;;5100000;28;20458;-76
2022/03/15 11:14:02;;;;;;;32.00;29.90;;;11.00;99.90;;;;;;5095286;28;20478;-75
2022/03/15 11:16:31;;;;;;;32.00;30.00;;;10.80;99.90;;;;;;5095356;28;20452;-76
2022/03/15 11:19:02;;;;;;;31.60;29.70;;;10.70;99.90;;;;;;5095281;28;20454;-75
2022/03/15 11:21:31;;;;;;;32.60;29.97;;;10.60;99.90;;;;;;5095349;28;20446;-73
2022/03/15 11:24:01;;;;;;;30.30;28.33;;;10.40;99.90;;;;;;5095398;28;20449;-76
2022/03/15 11:26:31;;;;;;;29.80;27.60;;;10.20;99.90;;;;;;5095386;28;20458;-76
2022/03/15 11:29:00;;;;;;;30.30;28.10;;;10.10;99.90;;;;;;5095223;28;20854;-75
2022/03/15 11:31:27;;;;;;;31.77;29.70;;;10.00;99.90;;;;;;5094939;28;20443;-75
2022/03/15 11:33:56;;;;;;;29.57;27.83;;;9.90;99.90;;;;;;5093249;28;20969;-75
2022/03/15 11:36:25;;;;;;;31.67;29.50;;;9.80;99.90;;;;;;5095345;28;20446;-76
2022/03/15 11:38:53;;;;;;;32.77;30.53;;;9.80;99.90;;;;;;5095354;28;20795;-75
2022/03/15 11:41:21;;;;;;;33.53;31.63;;;9.80;99.90;;;;;;5095060;28;20446;-75
2022/03/15 11:44:00;;;;;;;33.70;31.53;;;9.70;99.90;;;;;;5094979;28;20558;-75
2022/03/15 11:46:34;;;;;;;33.97;31.97;;;9.60;99.90;;;;;;5094977;28;20516;-75
2022/03/15 11:49:12;;;;;;;32.70;30.40;;;9.70;99.90;;;;;;5094949;28;20500;-75
2022/03/15 11:51:46;;;;;;;34.27;31.77;;;9.50;99.90;;;;;;5094917;28;20462;-76
2022/03/15 11:54:21;;;;;;;33.00;30.80;;;9.50;99.90;;;;;;5094850;28;20516;-75
2022/03/15 11:56:51;;;;;;;29.60;27.60;;;9.40;99.90;;;;;;5094829;28;20956;-74
2022/03/15 11:59:18;;;;;;;28.90;27.20;;;9.50;99.90;;;;;;5094743;28;20504;-74
2022/03/15 12:01:47;;;;;;;30.10;28.20;;;9.40;99.90;;;;;;5094442;28;20458;-74
2022/03/15 12:04:15;;;;;;;28.97;26.87;;;9.40;99.90;;;;;;5094419;28;20496;-74
2022/03/15 12:06:50;;;;;;;29.17;27.17;;;9.40;99.90;;;;;;5094491;28;20459;-74
2022/03/15 12:09:21;;;;;;;29.87;26.20;;;9.50;99.90;;;;;;5093945;28;20517;-74
2022/03/15 12:11:49;;;;;;;28.97;26.57;;;9.40;99.90;;;;;;5094559;28;20453;-75
2022/03/15 12:14:20;;;;;;;31.00;28.90;;;9.40;99.90;;;;;;5094737;28;20455;-74
2022/03/15 12:16:54;;;;;;;28.90;27.10;;;9.30;99.90;;;;;;5094429;28;20541;-74
2022/03/15 12:19:35;;;;;;;29.07;27.17;;;9.30;99.90;;;;;;5094205;28;20447;-74
2022/03/15 12:22:05;;;;;;;27.17;25.57;;;9.30;99.90;;;;;;5093703;28;20450;-73
2022/03/15 12:24:35;;;;;;;29.67;27.63;;;9.30;99.90;;;;;;5093978;28;20453;-73
2022/03/15 12:27:03;;;;;;;30.73;28.07;;;9.30;99.90;;;;;;5094157;28;20840;-74
2022/03/15 12:29:31;;;;;;;30.60;28.43;;;9.30;99.90;;;;;;5093961;28;20479;-74
2022/03/15 12:32:11;;;;;;;30.33;28.07;;;9.40;99.90;;;;;;5093999;28;20950;-74
2022/03/15 12:34:40;;;;;;;31.33;29.07;;;9.40;99.90;;;;;;5094119;28;20451;-73
2022/03/15 12:37:08;;;;;;;28.90;27.00;;;9.40;99.90;;;;;;5093989;28;20496;-73
2022/03/15 12:39:35;;;;;;;30.23;27.80;;;9.30;99.90;;;;;;5094010;28;20447;-73
2022/03/15 12:42:08;;;;;;;28.53;26.60;;;9.40;99.90;;;;;;5093776;28;20968;-73
2022/03/15 12:44:40;;;;;;;29.20;26.93;;;9.40;99.90;;;;;;5093758;28;20535;-73
2022/03/15 12:47:09;;;;;;;26.77;24.60;;;9.50;99.90;;;;;;5093760;28;20462;-72
2022/03/15 12:49:37;;;;;;;25.90;24.23;;;9.50;99.90;;;;;;5093489;28;20521;-74
2022/03/15 12:52:11;;;;;;;26.03;23.63;;;9.50;99.90;;;;;;5093742;28;20454;-73
2022/03/15 12:54:38;;;;;;;22.97;21.23;;;9.50;99.90;;;;;;5093674;28;20482;-73
2022/03/15 12:57:09;;;;;;;23.27;21.50;;;9.60;99.90;;;;;;5093668;28;20451;-73
2022/03/15 12:59:36;;;;;;;22.20;20.20;;;9.70;99.90;;;;;;5093558;28;20541;-73
2022/03/15 13:02:06;;;;;;;22.90;20.93;;;9.70;99.90;;;;;;5093435;28;20977;-73
2022/03/15 13:04:36;;;;;;;23.40;21.70;;;9.80;99.90;;;;;;5094237;28;20537;-73
2022/03/15 13:07:05;;;;;;;23.10;21.03;;;9.90;99.90;;;;;;5094905;28;20938;-73
2022/03/15 13:09:33;;;;;;;23.10;21.50;;;9.90;99.90;;;;;;5099030;28;20482;-73
2022/03/15 13:12:01;;;;;;;22.13;20.30;;;9.90;99.90;;;;;;5101941;28;20496;-74
2022/03/15 13:14:29;;;;;;;23.13;21.03;;;9.90;99.90;;;;;;5099406;28;20792;-73
2022/03/15 13:16:59;;;;;;;23.27;21.30;;;9.80;99.90;;;;;;5094295;28;20447;-73
2022/03/15 13:19:27;;;;;;;24.73;22.77;;;9.90;99.90;;;;;;5093179;28;20450;-74
2022/03/15 13:21:55;;;;;;;24.40;22.23;;;9.80;99.90;;;;;;5093370;28;20451;-74
2022/03/15 13:24:25;;;;;;;23.37;21.20;;;9.90;99.90;;;;;;5093247;28;20872;-74
2022/03/15 13:26:57;;;;;;;23.03;21.23;;;10.00;99.90;;;;;;5093263;28;20486;-74
2022/03/15 13:29:29;;;;;;;22.50;20.47;;;10.20;99.90;;;;;;5092905;28;20475;-74
2022/03/15 13:31:59;;;;;;;22.57;20.30;;;10.20;99.90;;;;;;5093109;28;20478;-74
2022/03/15 13:34:28;;;;;;;21.73;19.87;;;10.10;99.90;;;;;;5093014;28;20443;-74
2022/03/15 13:37:01;;;;;;;22.43;20.73;;;10.10;99.90;;;;;;5092787;28;20478;-75
2022/03/15 13:39:28;;;;;;;21.93;19.80;;;10.10;99.90;;;;;;5092810;28;20477;-74
2022/03/15 13:41:55;;;;;;;21.07;19.60;;;10.00;99.90;;;;;;5092754;28;20463;-74
2022/03/15 13:44:25;;;;;;;21.30;19.70;;;10.00;99.90;;;;;;5092892;28;20522;-75
2022/03/15 13:46:54;;;;;;;21.33;19.27;;;9.90;99.90;;;;;;5092893;28;20448;-75
2022/03/15 13:49:25;;;;;;;23.00;21.20;;;9.90;99.90;;;;;;5092789;28;20452;-75
2022/03/15 13:52:06;;;;;;;21.07;19.50;;;9.90;99.90;;;;;;5092748;28;20597;-74
2022/03/15 13:54:35;;;;;;;22.83;21.10;;;9.90;99.90;;;;;;5092713;28;20462;-74
2022/03/15 13:57:04;;;;;;;22.67;20.97;;;10.00;99.90;;;;;;5092764;28;20461;-74
2022/03/15 13:59:31;;;;;;;20.07;18.67;;;9.90;99.90;;;;;;5092598;28;20463;-74
2022/03/15 14:01:59;;;;;;;21.53;19.87;;;9.90;99.90;;;;;;5092435;28;20470;-74
2022/03/15 14:04:29;;;;;;;21.47;19.77;;;9.90;99.90;;;;;;5092238;28;20521;-75
2022/03/15 14:07:00;;;;;;;22.13;20.03;;;10.00;99.90;;;;;;5092584;28;20453;-75
2022/03/15 14:09:30;;;;;;;20.20;18.67;;;10.00;99.90;;;;;;5092403;28;20525;-73
2022/03/15 14:12:11;;;;;;;19.57;17.97;;;10.10;99.90;;;;;;5092341;28;20573;-74
2022/03/15 14:14:40;;;;;;;20.70;18.80;;;10.10;99.90;;;;;;5092519;28;20486;-74
2022/03/15 14:17:07;;;;;;;20.27;18.57;;;10.20;99.90;;;;;;5092330;28;20492;-72
2022/03/15 14:19:48;;;;;;;21.07;19.10;;;10.20;99.90;;;;;;5092497;28;20452;-72
2022/03/15 14:22:19;;;;;;;19.83;18.53;;;10.30;99.90;;;;;;5092483;28;20907;-73
2022/03/15 14:24:48;;;;;;;21.17;19.20;;;10.50;99.90;;;;;;5092503;28;20482;-73
2022/03/15 14:27:16;;;;;;;22.43;20.43;;;10.60;99.90;;;;;;5092450;28;20547;-73
2022/03/15 14:29:48;;;;;;;20.70;19.20;;;10.70;99.90;;;;;;5092341;28;20451;-72
2022/03/15 14:32:15;;;;;;;19.20;18.10;;;10.90;99.90;;;;;;5092364;28;20531;-72
2022/03/15 14:34:54;;;;;;;20.10;18.70;;;11.00;99.90;;;;;;5092364;28;20462;-73
2022/03/15 14:37:24;;;;;;;19.33;18.03;;;11.00;99.90;;;;;;5092427;28;20507;-72
2022/03/15 14:40:03;;;;;;;20.53;18.50;;;11.10;99.90;;;;;;5092167;28;20482;-73
2022/03/15 14:42:32;;;;;;;21.10;19.43;;;11.10;99.90;;;;;;5092434;28;20501;-75
2022/03/15 14:45:00;;;;;;;23.83;21.80;;;11.10;99.90;;;;;;5092218;28;20555;-74
2022/03/15 14:47:30;;;;;;;26.33;23.97;;;11.30;99.90;;;;;;5095654;28;20454;-75
2022/03/15 14:49:57;;;;;;;23.23;21.53;;;11.30;99.90;;;;;;5096064;28;20463;-76
2022/03/15 14:52:24;;;;;;;20.40;18.87;;;11.30;99.90;;;;;;5096100;28;20460;-75
2022/03/15 14:54:53;;;;;;;22.30;20.40;;;11.20;99.90;;;;;;5096005;28;20464;-76
2022/03/15 14:57:21;;;;;;;22.00;20.40;;;11.20;99.90;;;;;;5095975;28;20549;-76
2022/03/15 14:59:51;;;;;;;22.70;20.00;;;11.10;99.90;;;;;;5095901;28;20858;-75
2022/03/15 15:02:19;;;;;;;20.87;19.27;;;11.10;99.90;;;;;;5095757;28;20913;-76
2022/03/15 15:04:46;;;;;;;20.00;18.50;;;11.20;99.90;;;;;;5095909;28;20823;-75
2022/03/15 15:07:14;;;;;;;20.43;18.97;;;11.20;99.90;;;;;;5095737;28;20454;-75
2022/03/15 15:09:41;;;;;;;19.77;18.37;;;11.30;99.90;;;;;;5095157;28;20620;-75
2022/03/15 15:12:14;;;;;;;19.90;18.57;;;11.30;99.90;;;;;;5095577;28;20893;-75
2022/03/15 15:14:42;;;;;;;20.20;18.70;;;11.60;99.90;;;;;;5095685;28;20590;-75
2022/03/15 15:17:11;;;;;;;20.40;18.67;;;11.70;99.90;;;;;;5095530;28;20494;-73
2022/03/15 15:19:38;;;;;;;20.93;19.40;;;11.80;99.90;;;;;;5095369;28;20477;-74
2022/03/15 15:22:05;;;;;;;22.00;19.97;;;11.70;99.90;;;;;;5095538;28;20497;-75
2022/03/15 15:24:32;;;;;;;22.73;20.93;;;11.40;99.90;;;;;;5095377;28;20936;-75
2022/03/15 15:27:04;;;;;;;21.30;19.80;;;11.40;99.90;;;;;;5095414;28;20453;-75
2022/03/15 15:29:35;;;;;;;23.30;20.97;;;11.30;99.90;;;;;;5095383;28;20508;-76
2022/03/15 15:32:02;;;;;;;23.33;21.00;;;11.20;99.90;;;;;;5095300;28;20577;-75
2022/03/15 15:34:29;;;;;;;19.80;18.40;;;11.20;99.90;;;;;;5095280;28;20455;-75
2022/03/15 15:36:56;;;;;;;20.07;18.73;;;11.30;99.90;;;;;;5095255;28;21069;-75
2022/03/15 15:39:23;;;;;;;20.60;18.97;;;11.30;99.90;;;;;;5095266;28;20455;-76
2022/03/15 15:41:50;;;;;;;18.97;17.67;;;11.20;99.90;;;;;;5095138;28;20850;-75
2022/03/15 15:44:16;;;;;;;19.40;17.93;;;11.20;99.90;;;;;;5095055;28;20501;-75
2022/03/15 15:46:48;;;;;;;19.67;18.17;;;11.20;99.90;;;;;;5094995;28;20454;-76
2022/03/15 15:49:17;;;;;;;19.40;18.00;;;11.30;99.90;;;;;;5095057;28;20864;-75
2022/03/15 15:51:44;;;;;;;19.20;18.00;;;11.40;99.90;;;;;;5094685;28;20995;-75
2022/03/15 15:54:11;;;;;;;19.87;18.60;;;11.50;99.90;;;;;;5094792;28;20459;-74
2022/03/15 15:56:42;;;;;;;19.87;18.57;;;11.50;99.90;;;;;;5094788;28;20453;-75
2022/03/15 15:59:10;;;;;;;20.20;18.80;;;11.60;99.90;;;;;;5094910;28;20450;-75
2022/03/15 16:01:38;;;;;;;19.50;18.00;;;11.70;99.90;;;;;;5094431;28;20464;-75
2022/03/15 16:04:08;;;;;;;18.90;17.37;;;11.60;99.90;;;;;;5094668;28;20455;-74
2022/03/15 16:06:34;;;;;;;18.43;17.20;;;11.60;99.90;;;;;;5094617;28;20450;-74
2022/03/15 16:09:01;;;;;;;19.10;17.90;;;11.70;99.90;;;;;;5094473;28;20813;-76
2022/03/15 16:11:29;;;;;;;18.67;17.20;;;11.70;99.90;;;;;;5094440;28;20534;-72
2022/03/15 16:13:56;;;;;;;18.20;16.90;;;11.70;99.90;;;;;;5094356;28;20809;-75
2022/03/15 16:16:23;;;;;;;18.20;17.00;;;11.80;99.90;;;;;;5094256;28;20458;-75
2022/03/15 16:18:50;;;;;;;19.33;17.63;;;11.80;99.90;;;;;;5094341;28;20446;-74
2022/03/15 16:21:21;;;;;;;16.70;15.70;;;11.90;99.90;;;;;;5094369;28;20985;-76
2022/03/15 16:23:48;;;;;;;18.43;16.47;;;12.00;99.90;;;;;;5094231;28;20542;-75
2022/03/15 16:26:15;;;;;;;18.73;17.03;;;12.00;99.90;;;;;;5094276;28;20447;-75
2022/03/15 16:28:41;;;;;;;18.50;17.10;;;12.00;99.90;;;;;;5094102;28;20942;-76
2022/03/15 16:31:13;;;;;;;18.00;16.70;;;12.10;99.90;;;;;;5093942;28;20989;-75
2022/03/15 16:33:40;;;;;;;18.83;17.30;;;12.20;99.90;;;;;;5094006;28;20449;-76
2022/03/15 16:36:06;;;;;;;20.40;18.67;;;12.20;99.90;;;;;;5093855;28;20446;-75
2022/03/15 16:38:35;;;;;;;19.00;17.63;;;12.10;99.90;;;;;;5093822;28;20454;-75
2022/03/15 16:41:02;;;;;;;23.73;18.90;;;12.10;99.90;;;;;;5093814;28;20453;-75
2022/03/15 16:43:28;;;;;;;19.30;17.80;;;12.10;99.90;;;;;;5094021;28;20457;-75
2022/03/15 16:45:55;;;;;;;19.93;18.30;;;12.10;99.90;;;;;;5093932;28;20907;-73
2022/03/15 16:48:22;;;;;;;21.03;19.37;;;12.10;99.90;;;;;;5093646;28;20451;-75
2022/03/15 16:50:50;;;;;;;18.60;17.17;;;12.10;99.90;;;;;;5093557;28;20482;-75
2022/03/15 16:53:17;;;;;;;20.87;18.97;;;12.00;99.90;;;;;;5093632;28;20934;-74
2022/03/15 16:55:50;;;;;;;23.27;21.47;;;12.00;99.90;;;;;;5093534;28;20458;-72
2022/03/15 17:01:01;;;;;;;24.87;22.70;;;11.90;99.90;;;;;;5093453;28;20503;-73
2022/03/15 17:06:12;;;;;;;23.27;21.60;;;11.50;99.90;;;;;;5093483;28;20422;-72
2022/03/15 17:08:39;;;;;;;23.17;21.57;;;11.40;99.90;;;;;;5092896;28;20450;-72
2022/03/15 17:11:09;;;;;;;21.10;19.70;;;11.20;99.90;;;;;;5093151;28;20886;-74
2022/03/15 17:13:36;;;;;;;22.73;21.03;;;11.00;99.90;;;;;;5093333;28;20784;-74
2022/03/15 17:16:03;;;;;;;24.00;22.37;;;10.90;99.90;;;;;;5093252;28;20827;-72
2022/03/15 17:18:30;;;;;;;30.33;28.50;;;10.80;99.90;;;;;;5093296;28;20494;-72
2022/03/15 17:20:57;;;;;;;33.30;31.30;;;10.70;99.90;;;;;;5093349;28;20817;-72
2022/03/15 17:23:36;;;;;;;34.70;32.30;;;10.60;99.90;;;;;;5093093;28;20447;-72
2022/03/15 17:26:07;;;;;;;36.37;33.90;;;10.50;99.90;;;;;;5093135;28;20498;-72
2022/03/15 17:28:41;;;;;;;37.50;34.80;;;10.30;99.90;;;;;;5093046;28;20451;-73
2022/03/15 17:31:09;;;;;;;38.10;35.57;;;10.20;99.90;;;;;;5092922;28;20505;-72
2022/03/15 17:33:39;;;;;;;36.70;34.23;;;10.20;99.90;;;;;;5092917;28;20446;-72
2022/03/15 17:36:07;;;;;;;38.27;35.50;;;10.20;99.90;;;;;;5092846;28;20962;-72
2022/03/15 17:38:34;;;;;;;36.50;33.77;;;10.20;99.90;;;;;;5092766;28;20445;-71
2022/03/15 17:41:00;;;;;;;39.93;36.93;;;10.20;99.90;;;;;;5092795;28;20458;-72
2022/03/15 17:43:28;;;;;;;41.20;37.93;;;10.10;99.90;;;;;;5092878;28;20451;-72
2022/03/15 17:45:56;;;;;;;41.13;37.77;;;10.00;99.90;;;;;;5092758;28;20527;-71
2022/03/15 17:48:24;;;;;;;41.00;37.83;;;10.00;99.90;;;;;;5092666;28;20457;-70
2022/03/15 17:50:51;;;;;;;40.57;37.47;;;9.90;99.90;;;;;;5092620;28;20447;-70
2022/03/15 17:53:19;;;;;;;42.70;39.10;;;9.90;99.90;;;;;;5092661;28;20461;-70
2022/03/15 17:55:46;;;;;;;42.07;38.77;;;9.90;99.90;;;;;;5092619;28;20950;-69
2022/03/15 17:58:15;;;;;;;45.00;41.30;;;9.90;99.90;;;;;;5092662;28;20457;-69
